Euclid, Minnesota
Current Conditions -  °F | °C
As of 11:14 AM on Thursday 27 Nov 2014 (Local Time) from KCKN Reporting Station
Clear Clear  
Wind Chill: -17°   Ceiling: Unl
Heat Index:   Visibility: 10mi
Dew Point: -8°   Wind: 10mph
Humidity: 72%   Direction: 200°SSW
Pressure: 30.47"   Gusts: NA
Location:  47.97°N, 96.64°W
Report Text: KCKN 271714Z AUTO 20009KT 10SM CLR M18/M22 A3047 RMK AO2
Loading
Personal Weather Stations






























Interactive Weather Map New forecast layout! Learn more

10-Day Weather Forecast

Advertisements
Track Severe Weather on mobile